Time;durP1;ratioP1;P1;durP2;ratioP2;P2;SDS_P1;SDS_P2;PMS_P1;PMS_P2;Temp;Humidity;BMP_temperature;BMP_pressure;BME280_temperature;BME280_humidity;BME280_pressure;Samples;Min_cycle;Max_cycle;Signal;HPM_P1;HPM_P2
2023/07/25 00:02:46;;;;;;;9.10;7.20;;;;;;;22.07;61.14;98620.59;130751;1258;107257;-82
2023/07/25 00:05:51;;;;;;;8.40;6.50;;;;;;;22.04;61.31;98625.30;130679;1259;108641;-82
2023/07/25 00:08:57;;;;;;;10.90;7.60;;;;;;;21.98;61.56;98635.23;130683;1257;107531;-82
2023/07/25 00:12:02;;;;;;;10.60;7.50;;;;;;;21.89;61.80;98641.55;130647;1258;108662;-82
2023/07/25 00:15:09;;;;;;;9.10;6.70;;;;;;;21.80;62.08;98641.48;130681;1254;107642;-82
2023/07/25 00:18:15;;;;;;;8.60;6.80;;;;;;;21.75;62.13;98640.59;130787;1257;107608;-82
2023/07/25 00:21:20;;;;;;;9.90;7.20;;;;;;;21.73;62.43;98646.40;130749;1259;107284;-82
2023/07/25 00:24:26;;;;;;;12.20;7.30;;;;;;;21.73;62.27;98639.77;130674;1256;107642;-82
2023/07/25 00:27:31;;;;;;;11.00;7.60;;;;;;;21.69;62.46;98632.52;130669;1256;107390;-82
2023/07/25 00:30:39;;;;;;;10.20;7.40;;;;;;;21.64;62.65;98626.91;130668;1262;107576;-82
2023/07/25 00:33:44;;;;;;;10.90;7.80;;;;;;;21.57;63.10;98628.90;130680;1258;107572;-81
2023/07/25 00:36:52;;;;;;;10.30;7.10;;;;;;;21.50;63.15;98626.75;130606;1258;107951;-81
2023/07/25 00:39:58;;;;;;;9.60;7.50;;;;;;;21.45;63.22;98625.20;130669;1255;107255;-81
2023/07/25 00:43:03;;;;;;;10.00;7.40;;;;;;;21.38;63.45;98624.77;130652;1259;107865;-80
2023/07/25 00:46:09;;;;;;;10.30;6.90;;;;;;;21.32;63.71;98633.80;130652;1259;107447;-80
2023/07/25 00:49:14;;;;;;;11.40;7.20;;;;;;;21.27;63.91;98634.86;130669;1257;107291;-81
2023/07/25 00:52:20;;;;;;;9.70;7.40;;;;;;;21.25;63.94;98637.05;130751;1254;107560;-80
2023/07/25 00:55:26;;;;;;;10.00;7.20;;;;;;;21.23;64.15;98629.41;130694;1257;107541;-81
2023/07/25 00:58:31;;;;;;;10.80;7.60;;;;;;;21.19;64.34;98628.52;130712;1259;107458;-80
2023/07/25 01:01:38;;;;;;;13.30;7.90;;;;;;;21.14;64.56;98624.04;130665;1260;107634;-81
2023/07/25 01:04:44;;;;;;;10.20;7.70;;;;;;;21.10;64.59;98626.34;130722;1254;107590;-81
2023/07/25 01:07:50;;;;;;;10.60;7.80;;;;;;;21.05;64.76;98625.60;130690;1256;108473;-81
2023/07/25 01:10:56;;;;;;;9.80;7.40;;;;;;;20.97;64.88;98628.00;130689;1261;106988;-81
2023/07/25 01:14:02;;;;;;;12.50;6.70;;;;;;;20.93;65.07;98620.44;130660;1256;107425;-81
2023/07/25 01:17:12;;;;;;;8.60;6.80;;;;;;;20.90;65.24;98627.68;130710;1269;107534;-81
2023/07/25 01:20:18;;;;;;;10.40;7.90;;;;;;;20.87;65.55;98630.32;130646;1258;108467;-81
2023/07/25 01:23:25;;;;;;;10.20;7.90;;;;;;;20.85;65.58;98632.58;130649;1262;106476;-81
2023/07/25 01:26:30;;;;;;;10.30;7.30;;;;;;;20.82;65.73;98632.56;130762;1256;109328;-80
2023/07/25 01:29:38;;;;;;;10.70;7.60;;;;;;;20.81;65.87;98633.69;130578;1259;107649;-81
2023/07/25 01:32:44;;;;;;;10.20;7.30;;;;;;;20.78;66.04;98624.08;130593;1258;107595;-80
2023/07/25 01:35:49;;;;;;;9.00;7.60;;;;;;;20.74;66.04;98613.86;130661;1262;107459;-81
2023/07/25 01:38:55;;;;;;;8.90;7.10;;;;;;;20.69;66.30;98613.06;130669;1261;107624;-81
2023/07/25 01:42:00;;;;;;;12.00;7.20;;;;;;;20.64;66.38;98613.23;130677;1255;107576;-81
2023/07/25 01:45:08;;;;;;;8.80;6.90;;;;;;;20.61;66.57;98610.29;130700;1258;106560;-81
2023/07/25 01:48:13;;;;;;;9.10;7.00;;;;;;;20.59;66.59;98606.29;130760;1258;107577;-80
2023/07/25 01:51:19;;;;;;;10.60;7.20;;;;;;;20.57;66.78;98610.65;130734;1258;107528;-81
2023/07/25 01:54:24;;;;;;;9.80;7.20;;;;;;;20.55;66.86;98615.67;130692;1256;107335;-81
2023/07/25 01:57:30;;;;;;;10.80;7.00;;;;;;;20.52;66.89;98614.34;130571;1261;107625;-80
2023/07/25 02:00:35;;;;;;;9.30;7.40;;;;;;;20.47;67.21;98621.13;130623;1258;107574;-80
2023/07/25 02:03:41;;;;;;;10.80;7.60;;;;;;;20.40;67.32;98619.73;130610;1256;107596;-80
2023/07/25 02:06:47;;;;;;;10.70;7.60;;;;;;;20.35;67.44;98613.56;130633;1262;107650;-80
2023/07/25 02:09:52;;;;;;;9.10;6.40;;;;;;;20.31;67.59;98616.60;130609;1258;106548;-80
2023/07/25 02:12:58;;;;;;;8.30;6.70;;;;;;;20.28;67.78;98617.83;130629;1258;107662;-80
2023/07/25 02:16:04;;;;;;;10.50;7.00;;;;;;;20.27;67.78;98620.15;130649;1258;107551;-80
2023/07/25 02:19:13;;;;;;;9.50;6.90;;;;;;;20.27;67.89;98616.14;130745;1255;107534;-80
2023/07/25 02:22:19;;;;;;;9.90;6.90;;;;;;;20.24;67.84;98612.00;130686;1258;107896;-80
2023/07/25 02:25:25;;;;;;;9.20;7.30;;;;;;;20.20;68.03;98610.39;130531;1258;107687;-80
2023/07/25 02:28:31;;;;;;;9.50;7.40;;;;;;;20.17;68.11;98613.13;130558;1259;107540;-80
2023/07/25 02:31:36;;;;;;;9.70;7.00;;;;;;;20.11;68.26;98614.20;130949;1256;107239;-81
2023/07/25 02:34:42;;;;;;;9.50;6.70;;;;;;;20.05;68.30;98616.24;130649;1256;107544;-80
2023/07/25 02:37:47;;;;;;;8.90;6.60;;;;;;;19.98;68.35;98623.77;130684;1261;107563;-81
2023/07/25 02:40:53;;;;;;;10.70;6.90;;;;;;;19.95;68.59;98627.63;130649;1258;107572;-80
2023/07/25 02:43:59;;;;;;;8.60;6.70;;;;;;;19.91;68.60;98632.67;130816;1258;107563;-80
2023/07/25 02:47:04;;;;;;;9.10;7.00;;;;;;;19.88;68.77;98632.87;130781;1259;107486;-79
2023/07/25 02:50:11;;;;;;;10.20;6.80;;;;;;;19.88;68.79;98633.88;131087;1258;106668;-81
2023/07/25 02:53:16;;;;;;;10.10;7.00;;;;;;;19.82;68.81;98634.41;131913;1254;108527;-80
2023/07/25 02:56:22;;;;;;;8.80;7.00;;;;;;;19.78;68.99;98633.39;134713;1255;107429;-82
2023/07/25 02:59:29;;;;;;;10.80;6.60;;;;;;;19.76;69.19;98630.28;131074;1254;107623;-79
2023/07/25 03:02:35;;;;;;;7.70;5.90;;;;;;;19.76;69.03;98631.48;131179;1258;107395;-79
2023/07/25 03:05:40;;;;;;;8.90;6.40;;;;;;;19.77;69.22;98640.48;131072;1256;107522;-80
2023/07/25 03:08:46;;;;;;;9.00;6.60;;;;;;;19.79;69.26;98642.17;130733;1258;108605;-80
2023/07/25 03:11:51;;;;;;;8.90;7.00;;;;;;;19.83;69.31;98644.38;130697;1259;108346;-80
2023/07/25 03:14:57;;;;;;;10.40;7.40;;;;;;;19.88;69.40;98647.48;130686;1259;107583;-81
2023/07/25 03:18:03;;;;;;;8.90;6.30;;;;;;;19.96;69.34;98643.71;130672;1255;107533;-81
2023/07/25 03:21:09;;;;;;;8.40;6.50;;;;;;;20.03;69.24;98648.94;130588;1259;106792;-80
2023/07/25 03:24:14;;;;;;;9.20;6.60;;;;;;;20.07;69.20;98652.45;130596;1259;107395;-79
2023/07/25 03:27:23;;;;;;;9.20;6.30;;;;;;;20.13;69.00;98648.33;130545;1259;107449;-80
2023/07/25 03:30:29;;;;;;;7.80;6.10;;;;;;;20.17;68.84;98643.30;130547;1257;107503;-81
2023/07/25 03:33:34;;;;;;;7.50;6.00;;;;;;;20.20;68.75;98641.70;130602;1271;107552;-81
2023/07/25 03:36:40;;;;;;;9.00;5.20;;;;;;;20.23;68.61;98639.60;130592;1259;107603;-81
2023/07/25 03:39:46;;;;;;;8.30;5.70;;;;;;;20.31;68.62;98648.20;130553;1256;107752;-80
2023/07/25 03:42:51;;;;;;;8.60;5.70;;;;;;;20.41;68.36;98654.80;130610;1257;107495;-80
2023/07/25 03:45:57;;;;;;;7.10;5.30;;;;;;;20.55;68.14;98654.50;130613;1256;107587;-79
2023/07/25 03:49:02;;;;;;;7.80;5.40;;;;;;;20.67;67.95;98649.91;130582;1259;107551;-80
2023/07/25 03:52:09;;;;;;;7.50;5.50;;;;;;;20.75;67.76;98659.71;130511;1259;107535;-80
2023/07/25 03:55:14;;;;;;;7.20;5.20;;;;;;;20.80;67.46;98661.94;130586;1256;107562;-79
2023/07/25 03:58:20;;;;;;;7.50;5.40;;;;;;;20.86;67.11;98658.88;130571;1259;108649;-79
2023/07/25 04:01:25;;;;;;;7.30;4.30;;;;;;;21.01;67.08;98662.84;130540;1259;107552;-79
2023/07/25 04:04:31;;;;;;;5.70;4.50;;;;;;;21.24;66.47;98670.58;130502;1259;107653;-83
2023/07/25 04:07:36;;;;;;;7.00;4.60;;;;;;;21.40;65.87;98678.67;130682;1261;108110;-80
2023/07/25 04:10:42;;;;;;;5.20;4.50;;;;;;;21.54;65.33;98683.81;130613;1262;107371;-80
2023/07/25 04:13:48;;;;;;;6.00;4.60;;;;;;;21.67;65.16;98684.85;130700;1259;107625;-82
2023/07/25 04:16:53;;;;;;;6.50;4.50;;;;;;;21.79;64.78;98689.26;130753;1258;107544;-81
2023/07/25 04:19:59;;;;;;;6.50;4.30;;;;;;;21.90;64.69;98691.14;130740;1257;106710;-81
2023/07/25 04:23:04;;;;;;;5.10;4.30;;;;;;;21.94;64.45;98686.81;130669;1255;107277;-80
2023/07/25 04:26:10;;;;;;;5.60;4.40;;;;;;;21.94;64.63;98692.19;130687;1256;107259;-80
2023/07/25 04:29:15;;;;;;;6.90;4.10;;;;;;;21.98;64.30;98694.88;130623;1255;106574;-80
2023/07/25 04:32:21;;;;;;;5.50;4.10;;;;;;;22.11;64.08;98690.40;130637;1257;108168;-80
2023/07/25 04:35:26;;;;;;;5.60;4.30;;;;;;;22.21;63.62;98697.23;130647;1262;107561;-82
2023/07/25 04:38:32;;;;;;;6.20;4.10;;;;;;;22.37;63.58;98705.34;130601;1256;107733;-82
2023/07/25 04:41:37;;;;;;;4.50;3.80;;;;;;;22.52;63.16;98704.11;130622;1258;107466;-83
2023/07/25 04:44:44;;;;;;;4.80;3.60;;;;;;;22.68;62.97;98706.27;130641;1262;105674;-83
2023/07/25 04:47:50;;;;;;;15.80;3.90;;;;;;;22.79;62.70;98708.44;130633;1254;107481;-82
2023/07/25 04:50:55;;;;;;;6.80;4.00;;;;;;;22.76;61.71;98703.55;130898;1259;106728;-81
2023/07/25 04:54:01;;;;;;;5.60;3.50;;;;;;;22.77;61.83;98704.95;130706;1261;107588;-81
2023/07/25 04:57:07;;;;;;;4.30;3.40;;;;;;;22.88;61.47;98715.58;130628;1261;107604;-80
2023/07/25 05:00:14;;;;;;;5.10;3.50;;;;;;;23.04;60.65;98721.63;130612;1260;107557;-80
2023/07/25 05:03:20;;;;;;;4.60;3.20;;;;;;;23.09;60.51;98722.88;130705;1259;108574;-80
2023/07/25 05:06:25;;;;;;;4.70;3.30;;;;;;;23.18;59.31;98726.80;130661;1256;107205;-80
2023/07/25 05:09:31;;;;;;;6.70;3.10;;;;;;;23.21;59.23;98732.79;130808;1259;107627;-80
2023/07/25 05:12:36;;;;;;;73.80;9.00;;;;;;;23.17;58.82;98733.70;130748;1259;107490;-80
2023/07/25 05:15:42;;;;;;;5.10;3.00;;;;;;;23.13;59.45;98733.39;130743;1259;105629;-81
2023/07/25 05:18:47;;;;;;;3.60;2.70;;;;;;;23.09;57.93;98736.44;130840;1259;107620;-80
2023/07/25 05:21:53;;;;;;;4.20;2.90;;;;;;;22.88;57.67;98743.20;130669;1257;107590;-80
2023/07/25 05:24:58;;;;;;;3.70;2.80;;;;;;;22.63;58.07;98739.63;130812;1259;107716;-80
2023/07/25 05:28:04;;;;;;;3.40;2.50;;;;;;;22.59;58.36;98745.23;130756;1259;107269;-80
2023/07/25 05:31:10;;;;;;;3.20;2.60;;;;;;;22.66;58.48;98748.27;130814;1267;107518;-80
2023/07/25 05:34:15;;;;;;;2.90;2.40;;;;;;;22.77;58.91;98745.91;130881;1259;107367;-78
2023/07/25 05:37:24;;;;;;;3.00;2.50;;;;;;;22.93;58.72;98744.23;130662;1256;108867;-77
2023/07/25 05:40:29;;;;;;;26.80;3.50;;;;;;;22.98;57.53;98737.32;130688;1263;106489;-77
2023/07/25 05:43:35;;;;;;;5.10;2.30;;;;;;;22.81;57.40;98741.94;130682;1259;107531;-77
2023/07/25 05:46:40;;;;;;;3.60;2.30;;;;;;;22.60;57.38;98743.44;130618;1259;107082;-79
2023/07/25 05:49:46;;;;;;;4.00;1.90;;;;;;;22.46;57.81;98736.55;130636;1259;106000;-78
2023/07/25 05:52:52;;;;;;;2.40;2.00;;;;;;;22.47;58.05;98745.79;130696;1254;107585;-77
2023/07/25 05:55:57;;;;;;;2.50;2.10;;;;;;;22.56;58.22;98745.27;130662;1259;107532;-77
2023/07/25 05:59:03;;;;;;;3.20;2.00;;;;;;;22.55;57.99;98745.98;130574;1259;107553;-77
2023/07/25 06:02:10;;;;;;;2.40;2.00;;;;;;;22.57;58.11;98748.38;130559;1264;108623;-77
2023/07/25 06:05:15;;;;;;;2.40;1.80;;;;;;;22.58;58.19;98758.48;130530;1267;107427;-78
2023/07/25 06:08:21;;;;;;;2.40;2.10;;;;;;;22.62;58.38;98762.04;130523;1267;107526;-78
2023/07/25 06:11:28;;;;;;;3.90;1.80;;;;;;;22.64;57.82;98758.89;130694;1268;107559;-78
2023/07/25 06:14:33;;;;;;;2.30;2.00;;;;;;;22.49;57.94;98769.73;130598;1267;108645;-78
2023/07/25 06:17:39;;;;;;;2.90;2.10;;;;;;;22.46;58.35;98769.98;130674;1259;107549;-78
2023/07/25 06:20:44;;;;;;;2.90;2.20;;;;;;;22.55;58.46;98774.41;130651;1260;107561;-79
2023/07/25 06:23:50;;;;;;;2.40;2.10;;;;;;;22.52;58.41;98762.98;130618;1259;107517;-78
2023/07/25 06:26:55;;;;;;;2.50;2.10;;;;;;;22.42;58.45;98763.73;130667;1258;107446;-78
2023/07/25 06:30:01;;;;;;;3.80;2.10;;;;;;;22.45;58.71;98770.91;130603;1259;107631;-78
2023/07/25 06:33:06;;;;;;;2.50;2.20;;;;;;;22.53;58.43;98776.58;130612;1259;107717;-78
2023/07/25 06:36:12;;;;;;;2.70;2.30;;;;;;;22.59;58.35;98764.09;130682;1256;107224;-78
2023/07/25 06:39:18;;;;;;;2.70;2.10;;;;;;;22.61;58.64;98767.69;130686;1259;107574;-78
2023/07/25 06:42:23;;;;;;;4.10;2.40;;;;;;;22.67;58.51;98776.45;130688;1260;107392;-78
2023/07/25 06:45:30;;;;;;;4.20;2.30;;;;;;;22.61;58.52;98779.92;130626;1258;107510;-78
2023/07/25 06:48:36;;;;;;;2.70;2.20;;;;;;;22.62;59.04;98791.61;130726;1260;107716;-78
2023/07/25 06:51:42;;;;;;;2.20;2.00;;;;;;;22.68;58.79;98795.39;130616;1259;107487;-78
2023/07/25 06:54:47;;;;;;;2.90;2.20;;;;;;;22.63;58.85;98792.76;130635;1259;107564;-78
2023/07/25 06:57:55;;;;;;;2.90;2.20;;;;;;;22.65;58.91;98792.27;130702;1258;107446;-78
2023/07/25 07:01:01;;;;;;;2.90;2.00;;;;;;;22.74;59.06;98805.45;130579;1259;107455;-77
2023/07/25 07:04:06;;;;;;;4.00;2.30;;;;;;;22.85;58.90;98810.53;130652;1261;105972;-77
2023/07/25 07:07:12;;;;;;;4.10;2.20;;;;;;;22.91;58.61;98808.64;130732;1259;107990;-77
2023/07/25 07:10:17;;;;;;;2.90;2.20;;;;;;;22.85;58.68;98808.52;130633;1268;107553;-77
2023/07/25 07:13:23;;;;;;;3.40;1.90;;;;;;;22.91;59.09;98804.40;130673;1267;107424;-77
2023/07/25 07:16:29;;;;;;;4.10;2.10;;;;;;;23.08;58.75;98798.14;130631;1267;107561;-77
2023/07/25 07:19:34;;;;;;;2.60;1.90;;;;;;;23.16;58.55;98801.09;130718;1259;107539;-77
2023/07/25 07:22:40;;;;;;;3.70;2.00;;;;;;;23.11;57.98;98801.73;130645;1258;107533;-77
2023/07/25 07:25:46;;;;;;;2.50;1.90;;;;;;;23.00;58.37;98807.67;130643;1260;107226;-77
2023/07/25 07:28:52;;;;;;;3.20;1.60;;;;;;;23.04;58.57;98797.91;130813;1260;107718;-77
2023/07/25 07:31:59;;;;;;;2.00;1.80;;;;;;;23.09;57.83;98803.20;130651;1259;107528;-77
2023/07/25 07:35:05;;;;;;;1.80;1.70;;;;;;;23.05;58.01;98793.35;130766;1259;106718;-77
2023/07/25 07:38:11;;;;;;;2.00;1.60;;;;;;;23.14;57.84;98786.77;130727;1254;107574;-77
2023/07/25 07:41:16;;;;;;;2.40;1.60;;;;;;;23.34;57.85;98788.40;130679;1268;107675;-77
2023/07/25 07:44:22;;;;;;;2.50;1.60;;;;;;;23.52;57.49;98796.98;130604;1259;108165;-77
2023/07/25 07:47:27;;;;;;;3.60;2.20;;;;;;;23.66;55.80;98808.12;130727;1265;107530;-77
2023/07/25 07:50:33;;;;;;;1.90;1.60;;;;;;;23.77;55.09;98810.19;130658;1259;107526;-77
2023/07/25 07:53:39;;;;;;;1.60;1.50;;;;;;;23.90;54.65;98813.67;130680;1260;106421;-77
2023/07/25 07:56:44;;;;;;;2.10;1.20;;;;;;;23.92;55.78;98809.64;130609;1258;107542;-78
2023/07/25 07:59:50;;;;;;;1.80;1.50;;;;;;;24.17;55.05;98813.54;130630;1265;107261;-77
2023/07/25 08:02:58;;;;;;;2.00;1.30;;;;;;;24.30;54.79;98824.89;130609;1259;107498;-77
2023/07/25 08:06:04;;;;;;;2.50;1.50;;;;;;;24.45;53.50;98825.80;130758;1259;107523;-77
2023/07/25 08:09:09;;;;;;;1.40;1.30;;;;;;;24.40;52.70;98820.93;130717;1258;107516;-77
2023/07/25 08:12:15;;;;;;;2.10;1.50;;;;;;;24.42;54.04;98811.70;130597;1258;108756;-77
2023/07/25 08:15:21;;;;;;;1.30;1.20;;;;;;;24.59;53.34;98808.54;130656;1259;107583;-78
2023/07/25 08:18:26;;;;;;;1.50;1.20;;;;;;;24.70;53.25;98808.05;130677;1260;107556;-77
2023/07/25 08:21:32;;;;;;;1.30;1.20;;;;;;;24.73;53.13;98793.63;130811;1259;107556;-77
2023/07/25 08:24:37;;;;;;;3.20;1.40;;;;;;;24.77;52.64;98795.89;130582;1262;107382;-77
2023/07/25 08:27:43;;;;;;;1.50;1.30;;;;;;;24.65;52.07;98777.74;130620;1258;107656;-77
2023/07/25 08:30:49;;;;;;;2.60;1.60;;;;;;;24.63;52.71;98767.71;130691;1258;107406;-78
2023/07/25 08:33:55;;;;;;;1.80;1.40;;;;;;;24.71;51.74;98756.15;130829;1259;107539;-78
2023/07/25 08:37:01;;;;;;;1.60;1.40;;;;;;;24.67;51.40;98754.81;130747;1260;107680;-78
2023/07/25 08:40:08;;;;;;;2.20;1.50;;;;;;;24.66;51.50;98746.48;130735;1268;107504;-78
2023/07/25 08:43:16;;;;;;;3.40;1.60;;;;;;;24.65;51.63;98755.27;130774;1265;107425;-79
2023/07/25 08:46:26;;;;;;;1.70;1.20;;;;;;;24.71;50.79;98756.39;130656;1268;107640;-77
2023/07/25 08:49:36;;;;;;;2.20;1.40;;;;;;;24.80;51.30;98767.23;130791;1258;107435;-78
2023/07/25 08:52:44;;;;;;;2.10;1.30;;;;;;;25.07;51.54;98770.04;130576;1261;108342;-80
2023/07/25 08:55:50;;;;;;;5.40;1.90;;;;;;;25.24;50.43;98778.42;130614;1254;107564;-78
2023/07/25 08:58:57;;;;;;;3.00;1.70;;;;;;;25.07;49.92;98792.23;130634;1260;106406;-78
2023/07/25 09:02:03;;;;;;;1.40;1.30;;;;;;;24.86;49.84;98801.23;130655;1266;107405;-78
2023/07/25 09:05:10;;;;;;;1.80;1.60;;;;;;;24.88;50.28;98804.93;130604;1254;107365;-78
2023/07/25 09:08:16;;;;;;;3.30;1.80;;;;;;;25.00;49.78;98810.04;130677;1260;107255;-78
2023/07/25 09:11:22;;;;;;;2.10;1.40;;;;;;;25.09;50.06;98809.86;130604;1259;107240;-77
2023/07/25 09:14:28;;;;;;;2.00;1.30;;;;;;;25.30;49.12;98814.16;130654;1260;107499;-77
2023/07/25 09:17:34;;;;;;;1.40;1.30;;;;;;;25.33;48.84;98816.74;130541;1259;108089;-77
2023/07/25 09:20:40;;;;;;;1.50;1.30;;;;;;;25.45;48.87;98803.65;130830;1254;108418;-78
2023/07/25 09:23:52;;;;;;;3.40;1.50;;;;;;;25.66;48.69;98801.27;130653;1266;107474;-78
2023/07/25 09:26:58;;;;;;;1.60;1.50;;;;;;;25.65;47.88;98807.56;130670;1270;108129;-79
2023/07/25 09:30:11;;;;;;;1.50;1.40;;;;;;;25.66;46.81;98811.44;130786;1258;108114;-78
2023/07/25 09:33:26;;;;;;;1.70;1.30;;;;;;;25.59;46.22;98801.30;131358;1260;107505;-76
2023/07/25 09:36:32;;;;;;;1.40;1.30;;;;;;;25.44;46.74;98798.36;130631;1259;107505;-79
2023/07/25 09:39:38;;;;;;;2.30;1.30;;;;;;;25.22;46.73;98793.23;130559;1259;107696;-79
2023/07/25 09:42:44;;;;;;;1.50;1.30;;;;;;;25.08;46.46;98781.92;130653;1268;107680;-79
2023/07/25 09:45:49;;;;;;;1.50;1.40;;;;;;;25.26;46.09;98779.23;130629;1254;107338;-79
2023/07/25 09:48:55;;;;;;;2.40;1.50;;;;;;;25.50;44.99;98784.55;130720;1260;107507;-78
2023/07/25 09:52:04;;;;;;;1.50;1.40;;;;;;;25.64;43.97;98783.09;130593;1254;107527;-77
2023/07/25 09:55:10;;;;;;;1.40;1.20;;;;;;;25.78;45.34;98781.36;130716;1254;107425;-78
2023/07/25 09:58:16;;;;;;;1.60;1.20;;;;;;;25.87;45.07;98780.67;130650;1263;108623;-77
2023/07/25 10:01:21;;;;;;;1.50;1.30;;;;;;;25.71;44.91;98773.02;130673;1267;107539;-78
2023/07/25 10:04:28;;;;;;;1.90;1.30;;;;;;;25.65;44.08;98779.21;130734;1254;107505;-77
2023/07/25 10:07:34;;;;;;;1.60;1.30;;;;;;;25.51;43.06;98784.41;130603;1254;106569;-79
2023/07/25 10:10:41;;;;;;;2.20;1.30;;;;;;;25.40;43.55;98787.91;130602;1260;107527;-78
2023/07/25 10:13:50;;;;;;;1.30;1.10;;;;;;;25.39;42.52;98786.98;130649;1254;108437;-78
2023/07/25 10:16:57;;;;;;;1.30;1.10;;;;;;;25.39;43.33;98780.77;130691;1260;107817;-78
2023/07/25 10:20:08;;;;;;;1.60;1.40;;;;;;;25.36;42.78;98778.17;130683;1256;109231;-78
2023/07/25 10:23:14;;;;;;;1.30;1.10;;;;;;;25.24;43.54;98771.66;130617;1267;108767;-78
2023/07/25 10:26:21;;;;;;;1.50;1.40;;;;;;;25.33;43.71;98768.86;130621;1255;107437;-78
2023/07/25 10:29:41;;;;;;;1.80;1.30;;;;;;;25.35;43.22;98766.17;130557;1260;107531;-77
2023/07/25 10:32:51;;;;;;;1.80;1.30;;;;;;;25.34;43.78;98762.84;130605;1255;107336;-78
2023/07/25 10:35:58;;;;;;;2.60;1.20;;;;;;;25.46;43.55;98760.21;130664;1260;107305;-77
2023/07/25 10:39:25;;;;;;;2.00;1.40;;;;;;;25.65;43.86;98762.44;130609;1260;107685;-77
2023/07/25 10:42:43;;;;;;;2.60;1.10;;;;;;;25.80;43.54;98770.58;130684;1254;107420;-77
2023/07/25 10:45:55;;;;;;;4.50;1.40;;;;;;;25.89;42.99;98770.66;130612;1264;107562;-78
2023/07/25 10:49:03;;;;;;;1.40;1.10;;;;;;;26.08;43.37;98770.36;130638;1268;107583;-77
2023/07/25 10:52:09;;;;;;;1.30;1.20;;;;;;;26.19;42.60;98773.17;130645;1257;107547;-77
2023/07/25 10:55:15;;;;;;;1.50;1.30;;;;;;;26.32;42.28;98766.88;130653;1257;107468;-77
2023/07/25 10:58:20;;;;;;;2.10;1.20;;;;;;;26.31;42.07;98767.83;130578;1270;107642;-77
2023/07/25 11:01:43;;;;;;;1.40;1.20;;;;;;;26.24;41.20;98779.02;130604;1260;108705;-77
2023/07/25 11:04:48;;;;;;;2.50;1.50;;;;;;;26.22;42.46;98777.34;130717;1257;107287;-78
2023/07/25 11:07:56;;;;;;;2.50;1.40;;;;;;;26.43;42.39;98777.17;130676;1258;107470;-76
2023/07/25 11:11:05;;;;;;;1.50;1.40;;;;;;;26.61;41.64;98771.60;130823;1258;107531;-77
2023/07/25 11:14:12;;;;;;;1.50;1.20;;;;;;;26.58;41.17;98775.13;130657;1268;106693;-77
2023/07/25 11:17:17;;;;;;;1.30;1.20;;;;;;;26.56;40.87;98780.82;130561;1258;107672;-77
2023/07/25 11:20:25;;;;;;;1.50;1.40;;;;;;;26.50;41.16;98784.64;130630;1254;107511;-77
2023/07/25 11:23:30;;;;;;;1.80;1.50;;;;;;;26.49;41.67;98770.98;130757;1261;107481;-77
2023/07/25 11:26:37;;;;;;;4.40;1.60;;;;;;;26.49;40.64;98773.87;130684;1258;107771;-77
2023/07/25 11:29:43;;;;;;;2.20;1.50;;;;;;;26.54;41.36;98773.48;130663;1267;108626;-77
2023/07/25 11:32:53;;;;;;;2.00;1.30;;;;;;;26.68;41.27;98763.45;130614;1254;107543;-77
2023/07/25 11:35:58;;;;;;;1.90;1.50;;;;;;;26.72;39.71;98758.22;130634;1254;107562;-77
2023/07/25 11:39:05;;;;;;;1.80;1.40;;;;;;;26.57;40.33;98755.11;130572;1254;107153;-77
2023/07/25 11:42:10;;;;;;;3.20;1.50;;;;;;;26.43;40.72;98759.14;130623;1254;107384;-76
2023/07/25 11:45:17;;;;;;;3.20;1.50;;;;;;;26.49;41.40;98759.16;130642;1260;107502;-76
2023/07/25 11:48:24;;;;;;;1.50;1.40;;;;;;;26.71;40.79;98748.41;130620;1261;107524;-77
2023/07/25 11:51:30;;;;;;;1.40;1.30;;;;;;;26.78;40.93;98738.35;130781;1254;107483;-77
2023/07/25 11:54:36;;;;;;;2.00;1.40;;;;;;;26.98;40.91;98732.94;130624;1260;107515;-78
2023/07/25 11:57:42;;;;;;;2.50;1.80;;;;;;;27.23;40.10;98738.13;130663;1259;107511;-78
2023/07/25 12:00:54;;;;;;;1.90;1.50;;;;;;;27.23;39.45;98738.02;130620;1259;106827;-77
2023/07/25 12:04:01;;;;;;;2.00;1.60;;;;;;;27.23;40.35;98734.50;130589;1255;107519;-77
2023/07/25 12:07:07;;;;;;;2.80;1.50;;;;;;;27.36;40.40;98731.07;130642;1258;108814;-77
2023/07/25 12:10:25;;;;;;;2.90;1.60;;;;;;;27.30;39.32;98728.33;130647;1258;107588;-78
2023/07/25 12:13:31;;;;;;;2.30;1.40;;;;;;;27.24;40.01;98723.88;130660;1257;107536;-78
2023/07/25 12:16:38;;;;;;;1.90;1.60;;;;;;;27.31;40.38;98727.45;130576;1254;107614;-77
2023/07/25 12:19:51;;;;;;;1.80;1.50;;;;;;;27.35;40.02;98718.05;130597;1254;107172;-77
2023/07/25 12:23:07;;;;;;;3.10;1.60;;;;;;;27.49;40.19;98714.08;130690;1260;106708;-78
2023/07/25 12:26:13;;;;;;;2.50;1.40;;;;;;;27.65;39.92;98718.70;130599;1254;108322;-78
2023/07/25 12:29:21;;;;;;;1.30;1.20;;;;;;;27.48;38.28;98720.71;130706;1261;107491;-77
2023/07/25 12:32:26;;;;;;;3.40;2.10;;;;;;;27.19;39.13;98715.35;130654;1255;107507;-78
2023/07/25 12:35:33;;;;;;;3.30;2.10;;;;;;;27.07;39.20;98714.95;130576;1260;203760;-77
2023/07/25 12:38:38;;;;;;;2.10;1.60;;;;;;;26.92;39.31;98720.94;130721;1254;108329;-77
2023/07/25 12:41:44;;;;;;;1.90;1.40;;;;;;;26.75;39.59;98725.81;130799;1258;107865;-79
2023/07/25 12:44:50;;;;;;;3.20;1.70;;;;;;;26.61;39.63;98723.61;130598;1254;107240;-77
2023/07/25 12:47:56;;;;;;;2.00;1.70;;;;;;;26.47;39.70;98720.02;130973;1257;106328;-75
2023/07/25 12:51:02;;;;;;;2.60;1.60;;;;;;;26.45;39.66;98720.91;130618;1260;107383;-77
2023/07/25 12:54:08;;;;;;;1.70;1.40;;;;;;;26.31;39.59;98720.20;130778;1258;107519;-78
2023/07/25 12:57:16;;;;;;;2.00;1.60;;;;;;;26.22;40.10;98722.34;130628;1255;107542;-77
2023/07/25 13:00:22;;;;;;;1.90;1.70;;;;;;;26.38;39.89;98723.92;130652;1254;107579;-78
2023/07/25 13:03:28;;;;;;;1.80;1.70;;;;;;;26.42;39.85;98723.70;130677;1258;107559;-77
2023/07/25 13:06:34;;;;;;;1.70;1.60;;;;;;;26.41;39.85;98723.05;130718;1254;108207;-77
2023/07/25 13:09:40;;;;;;;2.30;1.90;;;;;;;26.47;39.59;98714.11;130691;1261;107289;-77
2023/07/25 13:12:46;;;;;;;2.50;1.70;;;;;;;26.52;39.69;98706.27;130765;1254;105764;-79
2023/07/25 13:15:51;;;;;;;3.30;2.10;;;;;;;26.64;39.55;98704.91;130507;1254;107584;-77
2023/07/25 13:18:57;;;;;;;2.30;1.90;;;;;;;26.76;38.60;98697.39;130716;1259;108674;-78
2023/07/25 13:22:02;;;;;;;2.50;1.80;;;;;;;26.64;38.83;98699.05;130644;1257;107547;-77
2023/07/25 13:25:09;;;;;;;2.70;1.70;;;;;;;26.57;39.49;98698.27;130672;1265;105801;-75
2023/07/25 13:28:15;;;;;;;2.00;1.70;;;;;;;26.51;39.21;98703.32;130603;1261;107510;-76
2023/07/25 13:31:21;;;;;;;2.70;1.80;;;;;;;26.36;39.50;98696.39;130644;1257;105728;-77
2023/07/25 13:34:27;;;;;;;1.90;1.70;;;;;;;26.32;39.67;98688.73;130693;1257;107490;-77
2023/07/25 13:37:32;;;;;;;3.70;1.80;;;;;;;26.35;39.60;98683.54;130695;1257;107608;-77
2023/07/25 13:40:38;;;;;;;2.20;1.50;;;;;;;26.34;39.31;98683.61;130644;1254;107618;-77
2023/07/25 13:43:43;;;;;;;2.90;1.70;;;;;;;26.36;39.42;98678.83;130600;1256;107494;-77
2023/07/25 13:46:50;;;;;;;2.20;1.70;;;;;;;26.39;39.52;98673.80;130740;1260;107590;-78
2023/07/25 13:49:58;;;;;;;1.60;1.50;;;;;;;26.43;38.85;98671.06;130677;1261;107255;-77
2023/07/25 13:53:04;;;;;;;2.90;1.90;;;;;;;26.51;39.32;98669.42;130542;1254;107152;-77
2023/07/25 13:56:09;;;;;;;1.60;1.50;;;;;;;26.77;39.70;98672.05;130708;1259;107564;-77
2023/07/25 13:59:17;;;;;;;2.10;1.80;;;;;;;27.03;39.06;98672.73;130734;1257;107646;-77
2023/07/25 14:02:23;;;;;;;2.00;1.80;;;;;;;27.10;38.45;98679.04;131139;1254;107865;-78
2023/07/25 14:05:29;;;;;;;3.70;2.00;;;;;;;26.97;38.99;98676.02;130531;1259;107750;-77
2023/07/25 14:08:34;;;;;;;2.60;2.10;;;;;;;26.99;38.49;98676.92;130665;1254;107322;-79
2023/07/25 14:11:41;;;;;;;2.30;1.90;;;;;;;26.84;38.44;98676.14;130636;1259;107588;-78
2023/07/25 14:14:47;;;;;;;2.80;2.00;;;;;;;26.58;38.56;98683.16;130636;1254;108424;-78
2023/07/25 14:17:53;;;;;;;2.20;1.70;;;;;;;26.38;38.87;98683.84;130612;1254;107579;-78